sensor_id;sensor_type;location;lat;lon;timestamp;temperature;humidity
21035;DHT22;10676;50.848;3.272;2023-07-20T00:00:26;17.00;99.90
21035;DHT22;10676;50.848;3.272;2023-07-20T00:02:52;16.90;99.90
21035;DHT22;10676;50.848;3.272;2023-07-20T00:05:17;16.80;99.90
21035;DHT22;10676;50.848;3.272;2023-07-20T00:07:50;16.80;99.90
21035;DHT22;10676;50.848;3.272;2023-07-20T00:10:17;16.70;99.90
21035;DHT22;10676;50.848;3.272;2023-07-20T00:12:43;16.60;99.90
21035;DHT22;10676;50.848;3.272;2023-07-20T00:15:13;16.60;99.90
21035;DHT22;10676;50.848;3.272;2023-07-20T00:17:39;16.50;99.90
21035;DHT22;10676;50.848;3.272;2023-07-20T00:20:06;16.50;99.90
21035;DHT22;10676;50.848;3.272;2023-07-20T00:22:32;16.50;99.90
21035;DHT22;10676;50.848;3.272;2023-07-20T00:24:58;16.50;99.90
21035;DHT22;10676;50.848;3.272;2023-07-20T00:27:23;16.50;99.90
21035;DHT22;10676;50.848;3.272;2023-07-20T00:29:49;16.50;99.90
21035;DHT22;10676;50.848;3.272;2023-07-20T00:32:15;16.50;99.90
21035;DHT22;10676;50.848;3.272;2023-07-20T00:34:40;16.50;99.90
21035;DHT22;10676;50.848;3.272;2023-07-20T00:37:06;16.50;99.90
21035;DHT22;10676;50.848;3.272;2023-07-20T00:39:32;16.40;99.90
21035;DHT22;10676;50.848;3.272;2023-07-20T00:41:57;16.40;99.90
21035;DHT22;10676;50.848;3.272;2023-07-20T00:44:23;16.40;99.90
21035;DHT22;10676;50.848;3.272;2023-07-20T00:46:49;16.40;99.90
21035;DHT22;10676;50.848;3.272;2023-07-20T00:49:15;16.50;99.90
21035;DHT22;10676;50.848;3.272;2023-07-20T00:51:41;16.50;99.90
21035;DHT22;10676;50.848;3.272;2023-07-20T00:54:07;16.50;99.90
21035;DHT22;10676;50.848;3.272;2023-07-20T00:56:33;16.50;99.90
21035;DHT22;10676;50.848;3.272;2023-07-20T00:58:59;16.50;99.90
21035;DHT22;10676;50.848;3.272;2023-07-20T01:01:25;16.50;99.90
21035;DHT22;10676;50.848;3.272;2023-07-20T01:03:50;16.50;99.90
21035;DHT22;10676;50.848;3.272;2023-07-20T01:09:13;16.60;99.90
21035;DHT22;10676;50.848;3.272;2023-07-20T01:14:29;16.70;99.90
21035;DHT22;10676;50.848;3.272;2023-07-20T01:16:57;16.70;99.90
21035;DHT22;10676;50.848;3.272;2023-07-20T01:19:22;16.70;99.90
21035;DHT22;10676;50.848;3.272;2023-07-20T01:22:02;16.60;99.90
21035;DHT22;10676;50.848;3.272;2023-07-20T01:24:36;16.60;99.90
21035;DHT22;10676;50.848;3.272;2023-07-20T01:30:40;16.50;99.90
21035;DHT22;10676;50.848;3.272;2023-07-20T01:33:09;16.40;99.90
21035;DHT22;10676;50.848;3.272;2023-07-20T01:35:38;16.30;99.90
21035;DHT22;10676;50.848;3.272;2023-07-20T01:38:07;16.20;99.90
21035;DHT22;10676;50.848;3.272;2023-07-20T01:40:34;16.10;99.90
21035;DHT22;10676;50.848;3.272;2023-07-20T01:43:00;16.00;99.90
21035;DHT22;10676;50.848;3.272;2023-07-20T01:45:25;15.90;99.90
21035;DHT22;10676;50.848;3.272;2023-07-20T01:47:52;15.90;99.90
21035;DHT22;10676;50.848;3.272;2023-07-20T01:50:17;15.90;99.90
21035;DHT22;10676;50.848;3.272;2023-07-20T01:52:43;15.90;99.90
21035;DHT22;10676;50.848;3.272;2023-07-20T01:55:09;15.90;99.90
21035;DHT22;10676;50.848;3.272;2023-07-20T01:57:35;15.90;99.90
21035;DHT22;10676;50.848;3.272;2023-07-20T02:00:01;15.90;99.90
21035;DHT22;10676;50.848;3.272;2023-07-20T02:02:27;16.00;99.90
21035;DHT22;10676;50.848;3.272;2023-07-20T02:04:54;16.00;99.90
21035;DHT22;10676;50.848;3.272;2023-07-20T02:07:19;16.00;99.90
21035;DHT22;10676;50.848;3.272;2023-07-20T02:09:45;16.10;99.90
21035;DHT22;10676;50.848;3.272;2023-07-20T02:12:11;16.10;99.90
21035;DHT22;10676;50.848;3.272;2023-07-20T02:14:36;16.20;99.90
21035;DHT22;10676;50.848;3.272;2023-07-20T02:17:02;16.20;99.90
21035;DHT22;10676;50.848;3.272;2023-07-20T02:19:29;16.30;99.90
21035;DHT22;10676;50.848;3.272;2023-07-20T02:21:55;16.30;99.90
21035;DHT22;10676;50.848;3.272;2023-07-20T02:24:21;16.30;99.90
21035;DHT22;10676;50.848;3.272;2023-07-20T02:26:46;16.40;99.90
21035;DHT22;10676;50.848;3.272;2023-07-20T02:29:12;16.40;99.90
21035;DHT22;10676;50.848;3.272;2023-07-20T02:31:38;16.40;99.90
21035;DHT22;10676;50.848;3.272;2023-07-20T02:34:05;16.40;99.90
21035;DHT22;10676;50.848;3.272;2023-07-20T02:36:31;16.50;99.90
21035;DHT22;10676;50.848;3.272;2023-07-20T02:38:58;16.50;99.90
21035;DHT22;10676;50.848;3.272;2023-07-20T02:41:24;16.50;99.90
21035;DHT22;10676;50.848;3.272;2023-07-20T02:43:50;16.50;99.90
21035;DHT22;10676;50.848;3.272;2023-07-20T02:46:15;16.50;99.90
21035;DHT22;10676;50.848;3.272;2023-07-20T02:48:41;16.60;99.90
21035;DHT22;10676;50.848;3.272;2023-07-20T02:51:07;16.50;99.90
21035;DHT22;10676;50.848;3.272;2023-07-20T02:53:33;16.60;99.90
21035;DHT22;10676;50.848;3.272;2023-07-20T02:55:59;16.50;99.90
21035;DHT22;10676;50.848;3.272;2023-07-20T02:58:24;16.60;99.90
21035;DHT22;10676;50.848;3.272;2023-07-20T03:00:50;16.60;99.90
21035;DHT22;10676;50.848;3.272;2023-07-20T03:03:16;16.50;99.90
21035;DHT22;10676;50.848;3.272;2023-07-20T03:05:41;16.60;99.90
21035;DHT22;10676;50.848;3.272;2023-07-20T03:08:07;16.60;99.90
21035;DHT22;10676;50.848;3.272;2023-07-20T03:10:37;16.50;99.90
21035;DHT22;10676;50.848;3.272;2023-07-20T03:13:03;16.50;99.90
21035;DHT22;10676;50.848;3.272;2023-07-20T03:15:29;16.50;99.90
21035;DHT22;10676;50.848;3.272;2023-07-20T03:17:56;16.50;99.90
21035;DHT22;10676;50.848;3.272;2023-07-20T03:20:24;16.50;99.90
21035;DHT22;10676;50.848;3.272;2023-07-20T03:22:49;16.50;99.90
21035;DHT22;10676;50.848;3.272;2023-07-20T03:25:15;16.50;99.90
21035;DHT22;10676;50.848;3.272;2023-07-20T03:27:41;16.50;99.90
21035;DHT22;10676;50.848;3.272;2023-07-20T03:30:07;16.50;99.90
21035;DHT22;10676;50.848;3.272;2023-07-20T03:32:35;16.50;99.90
21035;DHT22;10676;50.848;3.272;2023-07-20T03:35:01;16.50;99.90
21035;DHT22;10676;50.848;3.272;2023-07-20T03:37:26;16.50;99.90
21035;DHT22;10676;50.848;3.272;2023-07-20T03:39:52;16.50;99.90
21035;DHT22;10676;50.848;3.272;2023-07-20T03:42:18;16.50;99.90
21035;DHT22;10676;50.848;3.272;2023-07-20T03:44:43;16.50;99.90
21035;DHT22;10676;50.848;3.272;2023-07-20T03:47:09;16.50;99.90
21035;DHT22;10676;50.848;3.272;2023-07-20T03:49:35;16.50;99.90
21035;DHT22;10676;50.848;3.272;2023-07-20T03:52:01;16.50;99.90
21035;DHT22;10676;50.848;3.272;2023-07-20T03:54:28;16.60;99.90
21035;DHT22;10676;50.848;3.272;2023-07-20T03:56:54;16.60;99.90
21035;DHT22;10676;50.848;3.272;2023-07-20T03:59:20;16.60;99.90
21035;DHT22;10676;50.848;3.272;2023-07-20T04:01:46;16.60;99.90
21035;DHT22;10676;50.848;3.272;2023-07-20T04:04:11;16.60;99.90
21035;DHT22;10676;50.848;3.272;2023-07-20T04:06:37;16.60;99.90
21035;DHT22;10676;50.848;3.272;2023-07-20T04:09:03;16.60;99.90
21035;DHT22;10676;50.848;3.272;2023-07-20T04:11:30;16.60;99.90
21035;DHT22;10676;50.848;3.272;2023-07-20T04:13:56;16.60;99.90
21035;DHT22;10676;50.848;3.272;2023-07-20T04:16:22;16.60;99.90
21035;DHT22;10676;50.848;3.272;2023-07-20T04:18:47;16.60;99.90
21035;DHT22;10676;50.848;3.272;2023-07-20T04:21:13;16.60;99.90
21035;DHT22;10676;50.848;3.272;2023-07-20T04:23:39;16.60;99.90
21035;DHT22;10676;50.848;3.272;2023-07-20T04:26:04;16.60;99.90
21035;DHT22;10676;50.848;3.272;2023-07-20T04:28:32;16.60;99.90
21035;DHT22;10676;50.848;3.272;2023-07-20T04:31:10;16.60;99.90
21035;DHT22;10676;50.848;3.272;2023-07-20T04:33:36;16.60;99.90
21035;DHT22;10676;50.848;3.272;2023-07-20T04:36:02;16.60;99.90
21035;DHT22;10676;50.848;3.272;2023-07-20T04:38:28;16.60;99.90
21035;DHT22;10676;50.848;3.272;2023-07-20T04:40:54;16.60;99.90
21035;DHT22;10676;50.848;3.272;2023-07-20T04:43:19;16.60;99.90
21035;DHT22;10676;50.848;3.272;2023-07-20T04:45:45;16.60;99.90
21035;DHT22;10676;50.848;3.272;2023-07-20T04:48:13;16.60;99.90
21035;DHT22;10676;50.848;3.272;2023-07-20T04:50:41;16.70;99.90
21035;DHT22;10676;50.848;3.272;2023-07-20T04:53:07;16.70;99.90
21035;DHT22;10676;50.848;3.272;2023-07-20T04:55:32;16.70;99.90
21035;DHT22;10676;50.848;3.272;2023-07-20T04:58:02;16.70;99.90
21035;DHT22;10676;50.848;3.272;2023-07-20T05:00:29;16.80;99.90
21035;DHT22;10676;50.848;3.272;2023-07-20T05:02:55;16.80;99.90
21035;DHT22;10676;50.848;3.272;2023-07-20T05:05:21;16.90;99.90
21035;DHT22;10676;50.848;3.272;2023-07-20T05:07:47;16.90;99.90
21035;DHT22;10676;50.848;3.272;2023-07-20T05:10:13;17.00;99.90
21035;DHT22;10676;50.848;3.272;2023-07-20T05:12:39;17.00;99.90
21035;DHT22;10676;50.848;3.272;2023-07-20T05:15:04;17.10;99.90
21035;DHT22;10676;50.848;3.272;2023-07-20T05:17:30;17.20;99.90
21035;DHT22;10676;50.848;3.272;2023-07-20T05:19:56;17.20;99.90
21035;DHT22;10676;50.848;3.272;2023-07-20T05:22:21;17.30;99.90
21035;DHT22;10676;50.848;3.272;2023-07-20T05:24:47;17.40;99.90
21035;DHT22;10676;50.848;3.272;2023-07-20T05:27:13;17.50;99.90
21035;DHT22;10676;50.848;3.272;2023-07-20T05:29:46;17.80;99.90
21035;DHT22;10676;50.848;3.272;2023-07-20T05:32:15;18.40;99.90
21035;DHT22;10676;50.848;3.272;2023-07-20T05:34:41;18.80;99.90
21035;DHT22;10676;50.848;3.272;2023-07-20T05:37:06;19.10;99.90
21035;DHT22;10676;50.848;3.272;2023-07-20T05:39:33;19.30;99.90
21035;DHT22;10676;50.848;3.272;2023-07-20T05:41:58;19.30;99.90
21035;DHT22;10676;50.848;3.272;2023-07-20T05:44:24;19.40;99.90
21035;DHT22;10676;50.848;3.272;2023-07-20T05:46:50;19.50;99.90
21035;DHT22;10676;50.848;3.272;2023-07-20T05:49:16;19.60;99.90
21035;DHT22;10676;50.848;3.272;2023-07-20T05:51:42;19.70;99.90
21035;DHT22;10676;50.848;3.272;2023-07-20T05:54:07;19.90;99.90
21035;DHT22;10676;50.848;3.272;2023-07-20T05:56:33;20.00;99.90
21035;DHT22;10676;50.848;3.272;2023-07-20T05:58:59;20.30;99.90
21035;DHT22;10676;50.848;3.272;2023-07-20T06:01:25;20.50;99.90
21035;DHT22;10676;50.848;3.272;2023-07-20T06:03:53;20.80;99.90
21035;DHT22;10676;50.848;3.272;2023-07-20T06:06:19;21.30;99.90
21035;DHT22;10676;50.848;3.272;2023-07-20T06:08:46;21.80;99.90
21035;DHT22;10676;50.848;3.272;2023-07-20T06:11:12;22.30;99.90
21035;DHT22;10676;50.848;3.272;2023-07-20T06:13:37;22.60;99.90
21035;DHT22;10676;50.848;3.272;2023-07-20T06:16:03;23.40;99.90
21035;DHT22;10676;50.848;3.272;2023-07-20T06:18:53;24.40;99.90
21035;DHT22;10676;50.848;3.272;2023-07-20T06:21:19;25.90;99.90
21035;DHT22;10676;50.848;3.272;2023-07-20T06:23:45;26.40;99.90
21035;DHT22;10676;50.848;3.272;2023-07-20T06:26:11;26.50;99.90
21035;DHT22;10676;50.848;3.272;2023-07-20T06:28:37;26.40;99.90
21035;DHT22;10676;50.848;3.272;2023-07-20T06:31:03;26.30;99.90
21035;DHT22;10676;50.848;3.272;2023-07-20T06:33:29;26.30;99.90
21035;DHT22;10676;50.848;3.272;2023-07-20T06:35:55;26.70;99.90
21035;DHT22;10676;50.848;3.272;2023-07-20T06:38:22;27.50;99.90
21035;DHT22;10676;50.848;3.272;2023-07-20T06:40:49;28.30;99.90
21035;DHT22;10676;50.848;3.272;2023-07-20T06:43:15;29.20;99.90
21035;DHT22;10676;50.848;3.272;2023-07-20T06:45:41;29.80;99.90
21035;DHT22;10676;50.848;3.272;2023-07-20T06:48:07;30.20;99.90
21035;DHT22;10676;50.848;3.272;2023-07-20T06:50:33;30.40;99.90
21035;DHT22;10676;50.848;3.272;2023-07-20T06:52:59;30.70;99.90
21035;DHT22;10676;50.848;3.272;2023-07-20T06:55:25;31.10;99.90
21035;DHT22;10676;50.848;3.272;2023-07-20T06:57:51;31.40;99.90
21035;DHT22;10676;50.848;3.272;2023-07-20T07:00:17;31.60;99.40
21035;DHT22;10676;50.848;3.272;2023-07-20T07:02:43;31.80;98.20
21035;DHT22;10676;50.848;3.272;2023-07-20T07:05:09;31.90;97.00
21035;DHT22;10676;50.848;3.272;2023-07-20T07:07:35;31.60;96.50
21035;DHT22;10676;50.848;3.272;2023-07-20T07:10:01;31.10;96.50
21035;DHT22;10676;50.848;3.272;2023-07-20T07:12:29;30.60;96.00
21035;DHT22;10676;50.848;3.272;2023-07-20T07:14:54;30.50;95.60
21035;DHT22;10676;50.848;3.272;2023-07-20T07:17:20;31.30;94.30
21035;DHT22;10676;50.848;3.272;2023-07-20T07:19:45;32.20;93.70
21035;DHT22;10676;50.848;3.272;2023-07-20T07:22:11;33.40;92.00
21035;DHT22;10676;50.848;3.272;2023-07-20T07:24:37;34.60;90.20
21035;DHT22;10676;50.848;3.272;2023-07-20T07:27:03;35.50;83.00
21035;DHT22;10676;50.848;3.272;2023-07-20T07:29:29;35.60;77.80
21035;DHT22;10676;50.848;3.272;2023-07-20T07:31:55;35.10;77.30
21035;DHT22;10676;50.848;3.272;2023-07-20T07:34:21;34.40;78.40
21035;DHT22;10676;50.848;3.272;2023-07-20T07:36:46;33.70;79.10
21035;DHT22;10676;50.848;3.272;2023-07-20T07:39:12;33.20;80.80
21035;DHT22;10676;50.848;3.272;2023-07-20T07:41:38;32.90;80.50
21035;DHT22;10676;50.848;3.272;2023-07-20T07:44:04;32.80;80.80
21035;DHT22;10676;50.848;3.272;2023-07-20T07:46:29;32.50;82.40
21035;DHT22;10676;50.848;3.272;2023-07-20T07:48:55;32.40;80.50
21035;DHT22;10676;50.848;3.272;2023-07-20T07:51:21;32.40;80.60
21035;DHT22;10676;50.848;3.272;2023-07-20T07:53:46;32.40;79.70
21035;DHT22;10676;50.848;3.272;2023-07-20T07:56:14;32.30;79.70
21035;DHT22;10676;50.848;3.272;2023-07-20T07:58:40;32.10;80.50
21035;DHT22;10676;50.848;3.272;2023-07-20T08:01:06;32.30;79.80
21035;DHT22;10676;50.848;3.272;2023-07-20T08:03:31;32.70;78.60
21035;DHT22;10676;50.848;3.272;2023-07-20T08:05:57;33.10;77.30
21035;DHT22;10676;50.848;3.272;2023-07-20T08:08:25;33.20;75.30
21035;DHT22;10676;50.848;3.272;2023-07-20T08:10:53;33.00;75.90
21035;DHT22;10676;50.848;3.272;2023-07-20T08:13:20;32.80;75.80
21035;DHT22;10676;50.848;3.272;2023-07-20T08:15:49;32.50;75.80
21035;DHT22;10676;50.848;3.272;2023-07-20T08:18:17;32.30;77.10
21035;DHT22;10676;50.848;3.272;2023-07-20T08:20:46;32.00;78.00
21035;DHT22;10676;50.848;3.272;2023-07-20T08:23:12;31.80;78.50
21035;DHT22;10676;50.848;3.272;2023-07-20T08:25:39;31.60;78.10
21035;DHT22;10676;50.848;3.272;2023-07-20T08:28:10;31.40;79.20
21035;DHT22;10676;50.848;3.272;2023-07-20T08:30:43;31.20;79.40
21035;DHT22;10676;50.848;3.272;2023-07-20T08:33:16;31.10;80.00
21035;DHT22;10676;50.848;3.272;2023-07-20T08:35:46;31.10;80.10
21035;DHT22;10676;50.848;3.272;2023-07-20T08:38:12;31.80;77.40
21035;DHT22;10676;50.848;3.272;2023-07-20T08:40:56;32.60;75.30
21035;DHT22;10676;50.848;3.272;2023-07-20T08:43:23;33.50;74.50
21035;DHT22;10676;50.848;3.272;2023-07-20T08:45:54;34.50;70.40
21035;DHT22;10676;50.848;3.272;2023-07-20T08:48:20;35.40;67.30
21035;DHT22;10676;50.848;3.272;2023-07-20T08:50:49;35.90;65.20
21035;DHT22;10676;50.848;3.272;2023-07-20T08:53:16;36.70;63.50
21035;DHT22;10676;50.848;3.272;2023-07-20T08:55:44;37.20;61.10
21035;DHT22;10676;50.848;3.272;2023-07-20T08:58:12;37.10;61.10
21035;DHT22;10676;50.848;3.272;2023-07-20T09:00:41;36.80;62.40
21035;DHT22;10676;50.848;3.272;2023-07-20T09:03:07;36.10;63.10
21035;DHT22;10676;50.848;3.272;2023-07-20T09:05:34;35.40;64.40
21035;DHT22;10676;50.848;3.272;2023-07-20T09:08:01;34.80;66.10
21035;DHT22;10676;50.848;3.272;2023-07-20T09:10:29;34.10;66.30
21035;DHT22;10676;50.848;3.272;2023-07-20T09:12:54;33.30;67.70
21035;DHT22;10676;50.848;3.272;2023-07-20T09:15:22;32.50;69.80
21035;DHT22;10676;50.848;3.272;2023-07-20T09:17:49;31.90;72.80
21035;DHT22;10676;50.848;3.272;2023-07-20T09:20:16;31.30;72.20
21035;DHT22;10676;50.848;3.272;2023-07-20T09:22:43;30.60;74.40
21035;DHT22;10676;50.848;3.272;2023-07-20T09:25:15;30.10;75.50
21035;DHT22;10676;50.848;3.272;2023-07-20T09:27:44;29.70;76.60
21035;DHT22;10676;50.848;3.272;2023-07-20T09:30:10;29.50;76.40
21035;DHT22;10676;50.848;3.272;2023-07-20T09:35:06;28.90;78.00
21035;DHT22;10676;50.848;3.272;2023-07-20T09:37:33;28.70;77.80
21035;DHT22;10676;50.848;3.272;2023-07-20T09:39:59;28.90;77.20
21035;DHT22;10676;50.848;3.272;2023-07-20T09:42:26;29.80;76.00
21035;DHT22;10676;50.848;3.272;2023-07-20T09:44:52;31.20;72.80
21035;DHT22;10676;50.848;3.272;2023-07-20T09:47:22;32.70;69.10
21035;DHT22;10676;50.848;3.272;2023-07-20T09:49:48;34.20;65.70
21035;DHT22;10676;50.848;3.272;2023-07-20T09:52:15;35.30;63.90
21035;DHT22;10676;50.848;3.272;2023-07-20T09:54:44;36.30;60.00
21035;DHT22;10676;50.848;3.272;2023-07-20T09:57:11;37.00;58.20
21035;DHT22;10676;50.848;3.272;2023-07-20T09:59:39;37.50;56.40
21035;DHT22;10676;50.848;3.272;2023-07-20T10:02:16;37.70;56.00
21035;DHT22;10676;50.848;3.272;2023-07-20T10:04:44;37.70;56.10
21035;DHT22;10676;50.848;3.272;2023-07-20T10:07:10;37.10;56.10
21035;DHT22;10676;50.848;3.272;2023-07-20T10:09:39;36.30;56.80
21035;DHT22;10676;50.848;3.272;2023-07-20T10:12:07;35.40;57.80
21035;DHT22;10676;50.848;3.272;2023-07-20T10:14:37;34.50;59.90
21035;DHT22;10676;50.848;3.272;2023-07-20T10:17:05;33.50;61.40
21035;DHT22;10676;50.848;3.272;2023-07-20T10:19:43;32.60;63.20
21035;DHT22;10676;50.848;3.272;2023-07-20T10:22:14;31.70;65.40
21035;DHT22;10676;50.848;3.272;2023-07-20T10:24:46;30.90;67.30
21035;DHT22;10676;50.848;3.272;2023-07-20T10:27:13;30.30;70.00
21035;DHT22;10676;50.848;3.272;2023-07-20T10:29:40;29.60;71.40
21035;DHT22;10676;50.848;3.272;2023-07-20T10:32:07;29.00;73.30
21035;DHT22;10676;50.848;3.272;2023-07-20T10:34:33;28.50;74.90
21035;DHT22;10676;50.848;3.272;2023-07-20T10:36:59;27.90;84.20
21035;DHT22;10676;50.848;3.272;2023-07-20T10:39:31;27.50;82.20
21035;DHT22;10676;50.848;3.272;2023-07-20T10:42:01;27.10;84.20
21035;DHT22;10676;50.848;3.272;2023-07-20T10:44:30;26.70;82.00
21035;DHT22;10676;50.848;3.272;2023-07-20T10:47:08;26.40;82.60
21035;DHT22;10676;50.848;3.272;2023-07-20T10:49:34;26.10;83.40
21035;DHT22;10676;50.848;3.272;2023-07-20T10:52:04;25.90;89.40
21035;DHT22;10676;50.848;3.272;2023-07-20T10:57:23;25.60;91.40
21035;DHT22;10676;50.848;3.272;2023-07-20T10:59:49;25.30;91.30
21035;DHT22;10676;50.848;3.272;2023-07-20T11:02:18;25.20;91.30
21035;DHT22;10676;50.848;3.272;2023-07-20T11:04:46;25.20;90.80
21035;DHT22;10676;50.848;3.272;2023-07-20T11:07:38;25.20;90.70
21035;DHT22;10676;50.848;3.272;2023-07-20T11:10:14;25.80;90.40
21035;DHT22;10676;50.848;3.272;2023-07-20T11:16:04;27.40;86.90
21035;DHT22;10676;50.848;3.272;2023-07-20T11:18:33;28.10;84.80
21035;DHT22;10676;50.848;3.272;2023-07-20T11:20:59;28.60;82.40
21035;DHT22;10676;50.848;3.272;2023-07-20T11:23:25;28.90;82.50
21035;DHT22;10676;50.848;3.272;2023-07-20T11:25:51;29.10;82.00
21035;DHT22;10676;50.848;3.272;2023-07-20T11:28:16;29.60;80.30
21035;DHT22;10676;50.848;3.272;2023-07-20T11:30:42;30.10;78.40
21035;DHT22;10676;50.848;3.272;2023-07-20T11:33:09;30.40;77.40
21035;DHT22;10676;50.848;3.272;2023-07-20T11:35:45;30.80;77.70
21035;DHT22;10676;50.848;3.272;2023-07-20T11:38:13;31.20;76.00
21035;DHT22;10676;50.848;3.272;2023-07-20T11:40:46;31.70;74.10
21035;DHT22;10676;50.848;3.272;2023-07-20T11:43:12;31.80;72.50
21035;DHT22;10676;50.848;3.272;2023-07-20T11:45:39;31.70;73.10
21035;DHT22;10676;50.848;3.272;2023-07-20T11:48:05;31.40;73.00
21035;DHT22;10676;50.848;3.272;2023-07-20T11:50:31;31.20;73.30
21035;DHT22;10676;50.848;3.272;2023-07-20T11:52:57;31.00;73.90
21035;DHT22;10676;50.848;3.272;2023-07-20T11:55:23;31.10;74.20
21035;DHT22;10676;50.848;3.272;2023-07-20T11:58:05;31.30;74.20
21035;DHT22;10676;50.848;3.272;2023-07-20T12:00:35;31.70;73.10
21035;DHT22;10676;50.848;3.272;2023-07-20T12:03:04;31.90;72.60
21035;DHT22;10676;50.848;3.272;2023-07-20T12:05:32;32.00;71.90
21035;DHT22;10676;50.848;3.272;2023-07-20T12:07:58;31.90;71.80
21035;DHT22;10676;50.848;3.272;2023-07-20T12:10:28;31.70;71.20
21035;DHT22;10676;50.848;3.272;2023-07-20T12:12:54;31.80;71.70
21035;DHT22;10676;50.848;3.272;2023-07-20T12:15:25;32.10;71.30
21035;DHT22;10676;50.848;3.272;2023-07-20T12:17:58;32.30;70.50
21035;DHT22;10676;50.848;3.272;2023-07-20T12:20:37;32.30;70.20
21035;DHT22;10676;50.848;3.272;2023-07-20T12:23:07;32.10;70.60
21035;DHT22;10676;50.848;3.272;2023-07-20T12:28:07;32.00;69.70
21035;DHT22;10676;50.848;3.272;2023-07-20T12:30:35;31.70;69.80
21035;DHT22;10676;50.848;3.272;2023-07-20T12:33:02;31.40;71.00
21035;DHT22;10676;50.848;3.272;2023-07-20T12:35:29;31.20;72.80
21035;DHT22;10676;50.848;3.272;2023-07-20T12:37:55;31.10;73.10
21035;DHT22;10676;50.848;3.272;2023-07-20T12:40:21;30.80;73.70
21035;DHT22;10676;50.848;3.272;2023-07-20T12:42:46;30.60;74.40
21035;DHT22;10676;50.848;3.272;2023-07-20T12:45:12;30.20;75.60
21035;DHT22;10676;50.848;3.272;2023-07-20T12:47:39;29.80;76.90
21035;DHT22;10676;50.848;3.272;2023-07-20T12:50:05;29.40;77.60
21035;DHT22;10676;50.848;3.272;2023-07-20T12:52:39;28.90;78.90
21035;DHT22;10676;50.848;3.272;2023-07-20T12:55:06;28.40;80.80
21035;DHT22;10676;50.848;3.272;2023-07-20T12:57:36;27.80;83.30
21035;DHT22;10676;50.848;3.272;2023-07-20T13:00:03;27.30;86.10
21035;DHT22;10676;50.848;3.272;2023-07-20T13:02:31;26.80;90.00
21035;DHT22;10676;50.848;3.272;2023-07-20T13:04:57;26.30;90.00
21035;DHT22;10676;50.848;3.272;2023-07-20T13:07:34;25.80;91.60
21035;DHT22;10676;50.848;3.272;2023-07-20T13:10:01;25.40;92.80
21035;DHT22;10676;50.848;3.272;2023-07-20T13:12:28;24.90;95.40
21035;DHT22;10676;50.848;3.272;2023-07-20T13:14:55;24.30;96.80
21035;DHT22;10676;50.848;3.272;2023-07-20T13:17:22;23.60;99.60
21035;DHT22;10676;50.848;3.272;2023-07-20T13:19:47;22.60;99.90
21035;DHT22;10676;50.848;3.272;2023-07-20T13:22:13;21.70;99.90
21035;DHT22;10676;50.848;3.272;2023-07-20T13:24:40;20.90;99.90
21035;DHT22;10676;50.848;3.272;2023-07-20T13:27:06;20.30;99.90
21035;DHT22;10676;50.848;3.272;2023-07-20T13:29:32;19.70;99.90
21035;DHT22;10676;50.848;3.272;2023-07-20T13:31:58;19.20;99.90
21035;DHT22;10676;50.848;3.272;2023-07-20T13:34:25;18.90;99.90
21035;DHT22;10676;50.848;3.272;2023-07-20T13:36:51;18.70;99.90
21035;DHT22;10676;50.848;3.272;2023-07-20T13:39:17;18.60;99.90
21035;DHT22;10676;50.848;3.272;2023-07-20T13:41:43;18.50;99.90
21035;DHT22;10676;50.848;3.272;2023-07-20T13:44:09;18.50;99.90
21035;DHT22;10676;50.848;3.272;2023-07-20T13:46:35;18.50;99.90
21035;DHT22;10676;50.848;3.272;2023-07-20T13:49:01;18.60;99.90
21035;DHT22;10676;50.848;3.272;2023-07-20T13:51:26;18.60;99.90
21035;DHT22;10676;50.848;3.272;2023-07-20T13:53:52;18.60;99.90
21035;DHT22;10676;50.848;3.272;2023-07-20T13:56:17;18.60;99.90
21035;DHT22;10676;50.848;3.272;2023-07-20T13:58:43;18.50;99.90
21035;DHT22;10676;50.848;3.272;2023-07-20T14:01:09;18.40;99.90
21035;DHT22;10676;50.848;3.272;2023-07-20T14:03:34;18.30;99.90
21035;DHT22;10676;50.848;3.272;2023-07-20T14:06:00;18.20;99.90
21035;DHT22;10676;50.848;3.272;2023-07-20T14:08:26;18.10;99.90
21035;DHT22;10676;50.848;3.272;2023-07-20T14:10:51;18.10;99.90
21035;DHT22;10676;50.848;3.272;2023-07-20T14:13:17;18.00;99.90
21035;DHT22;10676;50.848;3.272;2023-07-20T14:15:43;18.00;99.90
21035;DHT22;10676;50.848;3.272;2023-07-20T14:18:08;18.00;99.90
21035;DHT22;10676;50.848;3.272;2023-07-20T14:20:34;18.00;99.90
21035;DHT22;10676;50.848;3.272;2023-07-20T14:23:00;18.00;99.90
21035;DHT22;10676;50.848;3.272;2023-07-20T14:25:26;18.00;99.90
21035;DHT22;10676;50.848;3.272;2023-07-20T14:27:52;18.00;99.90
21035;DHT22;10676;50.848;3.272;2023-07-20T14:30:18;18.00;99.90
21035;DHT22;10676;50.848;3.272;2023-07-20T14:32:43;18.10;99.90
21035;DHT22;10676;50.848;3.272;2023-07-20T14:35:09;18.10;99.90
21035;DHT22;10676;50.848;3.272;2023-07-20T14:37:35;18.20;99.90
21035;DHT22;10676;50.848;3.272;2023-07-20T14:40:00;18.40;99.90
21035;DHT22;10676;50.848;3.272;2023-07-20T14:42:26;18.50;99.90
21035;DHT22;10676;50.848;3.272;2023-07-20T14:44:52;18.70;99.90
21035;DHT22;10676;50.848;3.272;2023-07-20T14:47:18;19.00;99.90
21035;DHT22;10676;50.848;3.272;2023-07-20T14:49:44;19.50;99.90
21035;DHT22;10676;50.848;3.272;2023-07-20T14:52:10;20.20;99.90
21035;DHT22;10676;50.848;3.272;2023-07-20T14:54:35;21.10;99.90
21035;DHT22;10676;50.848;3.272;2023-07-20T14:57:01;22.00;99.90
21035;DHT22;10676;50.848;3.272;2023-07-20T14:59:28;22.90;99.90
21035;DHT22;10676;50.848;3.272;2023-07-20T15:01:53;23.60;99.90
21035;DHT22;10676;50.848;3.272;2023-07-20T15:04:19;24.20;99.90
21035;DHT22;10676;50.848;3.272;2023-07-20T15:06:45;24.50;99.90
21035;DHT22;10676;50.848;3.272;2023-07-20T15:09:10;24.80;99.90
21035;DHT22;10676;50.848;3.272;2023-07-20T15:11:36;24.90;99.90
21035;DHT22;10676;50.848;3.272;2023-07-20T15:14:02;25.10;99.90
21035;DHT22;10676;50.848;3.272;2023-07-20T15:16:28;25.40;99.90
21035;DHT22;10676;50.848;3.272;2023-07-20T15:18:53;25.60;99.90
21035;DHT22;10676;50.848;3.272;2023-07-20T15:21:19;25.90;99.90
21035;DHT22;10676;50.848;3.272;2023-07-20T15:23:45;26.10;99.90
21035;DHT22;10676;50.848;3.272;2023-07-20T15:26:11;26.20;99.90
21035;DHT22;10676;50.848;3.272;2023-07-20T15:28:37;26.20;99.90
21035;DHT22;10676;50.848;3.272;2023-07-20T15:31:04;26.20;99.90
21035;DHT22;10676;50.848;3.272;2023-07-20T15:33:30;26.20;99.90
21035;DHT22;10676;50.848;3.272;2023-07-20T15:35:56;26.40;99.90
21035;DHT22;10676;50.848;3.272;2023-07-20T15:38:22;26.40;99.90
21035;DHT22;10676;50.848;3.272;2023-07-20T15:40:48;26.50;99.90
21035;DHT22;10676;50.848;3.272;2023-07-20T15:43:16;26.70;99.90
21035;DHT22;10676;50.848;3.272;2023-07-20T15:45:46;26.70;99.90
21035;DHT22;10676;50.848;3.272;2023-07-20T15:48:14;26.80;99.90